EFTP

Tampere-Pirkkala Airport

Tampere / Pirkkala, Finland
METAR EFTP 140820Z 17004KT 120V200 9999 OVC009 M05/M07 Q1035
Observed Flight Rules
Dec-14 @ 08:20 UTC (42 minutes ago) Instrument Flight Rules
Wind Visibility Clouds
170° at 4 knots 10,000+ meters
  • Overcast at 900' AGL
Temperatures Readings
Current -5°C / 23°F
Dewpoint -7°C / 19°F
Humidity 86%
Altimeter 30.56" Hg
Pressure 1035 hPa
Elevation 112
METAR EFTP 140820Z 17004KT 120V200 9999 OVC009 M05/M07 Q1035
Observed Flight Rules
Dec-14 @ 08:20 UTC
(42 minutes ago)
IFR
Wind Visibility
170° at 4 knots 10,000+ meters
Clouds
  • Overcast at 900' AGL
Temperature Dewpoint
-5°C / 23°F -7°C / 19°F
Humidity Altimeter Pressure
86% 30.56" Hg 1035 hPa